createdAt,value
2023-02-15T00:01:10.081Z,2.40
2023-02-15T00:03:39.219Z,2.20
2023-02-15T00:06:07.662Z,2.10
2023-02-15T00:08:35.722Z,2.10
2023-02-15T00:11:12.710Z,2.00
2023-02-15T00:13:44.344Z,2.10
2023-02-15T00:16:14.283Z,2.20
2023-02-15T00:18:42.296Z,2.10
2023-02-15T00:21:11.511Z,2.10
2023-02-15T00:23:39.393Z,2.00
2023-02-15T00:26:11.627Z,1.90
2023-02-15T00:28:41.247Z,1.80
2023-02-15T00:31:13.270Z,1.60
2023-02-15T00:33:42.176Z,1.60
2023-02-15T00:36:11.439Z,1.30
2023-02-15T00:38:40.410Z,1.20
2023-02-15T00:41:09.514Z,1.20
2023-02-15T00:43:38.386Z,1.50
2023-02-15T00:46:07.243Z,1.60
2023-02-15T00:48:35.272Z,1.60
2023-02-15T00:51:03.462Z,1.60
2023-02-15T00:53:34.172Z,1.70
2023-02-15T00:56:02.414Z,1.70
2023-02-15T00:58:30.629Z,1.90
2023-02-15T01:01:08.584Z,1.90
2023-02-15T01:03:38.665Z,1.90
2023-02-15T01:06:06.725Z,1.90
2023-02-15T01:08:35.554Z,2.00
2023-02-15T01:11:07.945Z,1.80
2023-02-15T01:13:37.361Z,1.60
2023-02-15T01:16:06.325Z,1.30
2023-02-15T01:18:35.158Z,1.30
2023-02-15T01:21:11.815Z,1.50
2023-02-15T01:23:40.255Z,1.50
2023-02-15T01:26:09.165Z,1.40
2023-02-15T01:28:38.129Z,1.20
2023-02-15T01:31:08.772Z,1.00
2023-02-15T01:33:38.080Z,1.00
2023-02-15T01:36:07.046Z,1.10
2023-02-15T01:38:36.625Z,1.10
2023-02-15T01:41:28.209Z,1.10
2023-02-15T01:44:01.101Z,1.20
2023-02-15T01:46:36.388Z,1.30
2023-02-15T01:49:17.391Z,1.30
2023-02-15T01:51:48.680Z,1.30
2023-02-15T01:54:29.014Z,1.20
2023-02-15T01:57:04.052Z,1.10
2023-02-15T01:59:34.586Z,1.00
2023-02-15T02:02:04.895Z,0.90
2023-02-15T02:04:48.453Z,1.00
2023-02-15T02:07:20.559Z,1.00
2023-02-15T02:09:49.631Z,0.90
2023-02-15T02:12:19.568Z,1.30
2023-02-15T02:14:49.434Z,1.40
2023-02-15T02:17:34.221Z,1.40
2023-02-15T02:20:08.277Z,1.40
2023-02-15T02:22:57.911Z,1.40
2023-02-15T02:25:53.991Z,1.40
2023-02-15T02:28:39.339Z,1.40
2023-02-15T02:31:29.079Z,1.50
2023-02-15T02:34:12.371Z,1.50
2023-02-15T02:37:19.370Z,1.60
2023-02-15T02:39:53.084Z,1.50
2023-02-15T02:42:21.432Z,1.40
2023-02-15T02:44:54.813Z,1.40
2023-02-15T02:47:32.467Z,1.40
2023-02-15T02:50:06.768Z,1.30
2023-02-15T02:52:46.279Z,1.20
2023-02-15T02:55:21.094Z,1.30
2023-02-15T02:58:30.628Z,1.60
2023-02-15T03:01:14.671Z,1.60
2023-02-15T03:03:47.727Z,1.50
2023-02-15T03:06:25.219Z,1.50
2023-02-15T03:08:59.813Z,1.40
2023-02-15T03:11:28.012Z,1.20
2023-02-15T03:13:56.980Z,1.10
2023-02-15T03:16:27.216Z,1.00
2023-02-15T03:19:15.073Z,0.70
2023-02-15T03:22:04.704Z,0.60
2023-02-15T03:24:38.606Z,0.60
2023-02-15T03:27:19.967Z,0.60
2023-02-15T03:29:53.339Z,0.70
2023-02-15T03:32:23.492Z,0.70
2023-02-15T03:34:52.112Z,0.60
2023-02-15T03:37:23.399Z,0.50
2023-02-15T03:40:46.582Z,0.50
2023-02-15T03:43:23.389Z,0.50
2023-02-15T03:45:56.808Z,0.40
2023-02-15T03:48:29.250Z,0.30
2023-02-15T03:51:20.502Z,0.30
2023-02-15T03:53:50.584Z,0.30
2023-02-15T03:56:19.070Z,0.20
2023-02-15T03:59:05.748Z,0.20
2023-02-15T04:01:45.368Z,0.10
2023-02-15T04:04:24.629Z,0.20
2023-02-15T04:06:53.482Z,0.20
2023-02-15T04:09:40.043Z,0.20
2023-02-15T04:12:08.564Z,0.30
2023-02-15T04:14:55.174Z,0.40
2023-02-15T04:17:24.146Z,0.30
2023-02-15T04:23:27.116Z,0.80
2023-02-15T04:25:55.008Z,0.90
2023-02-15T04:28:23.375Z,0.70
2023-02-15T04:30:51.692Z,0.60
2023-02-15T04:33:20.016Z,0.50
2023-02-15T04:35:48.262Z,0.50
2023-02-15T04:38:17.351Z,0.40
2023-02-15T04:40:46.073Z,0.50
2023-02-15T04:43:14.592Z,0.40
2023-02-15T04:45:42.790Z,0.60
2023-02-15T04:48:10.783Z,0.80
2023-02-15T04:50:39.267Z,0.80
2023-02-15T04:53:07.768Z,0.80
2023-02-15T04:55:35.707Z,0.60
2023-02-15T04:58:03.715Z,0.60
2023-02-15T05:00:32.840Z,0.40
2023-02-15T05:03:00.978Z,0.20
2023-02-15T05:05:29.091Z,0.10
2023-02-15T05:07:57.460Z,0.10
2023-02-15T05:10:26.320Z,0.30
2023-02-15T05:12:54.481Z,0.20
2023-02-15T05:15:23.375Z,0.20
2023-02-15T05:17:51.689Z,0.10
2023-02-15T05:20:20.131Z,0.10
2023-02-15T05:22:49.004Z,0.10
2023-02-15T05:25:36.060Z,0.10
2023-02-15T05:28:22.123Z,0.20
2023-02-15T05:30:54.299Z,0.20
2023-02-15T05:33:26.770Z,0.30
2023-02-15T05:35:58.044Z,0.30
2023-02-15T05:38:26.286Z,0.20
2023-02-15T05:40:54.540Z,0.00
2023-02-15T05:43:23.323Z,0.00
2023-02-15T05:45:53.573Z,0.00
2023-02-15T05:48:24.142Z,0.00
2023-02-15T05:51:14.453Z,0.00
2023-02-15T05:53:42.670Z,-0.10
2023-02-15T05:56:35.831Z,0.00
2023-02-15T05:59:03.891Z,0.00
2023-02-15T06:01:32.332Z,-0.10
2023-02-15T06:04:00.299Z,-0.30
2023-02-15T06:06:28.438Z,-0.40
2023-02-15T06:08:57.305Z,-0.40
2023-02-15T06:11:25.487Z,-0.30
2023-02-15T06:13:54.043Z,-0.30
2023-02-15T06:16:23.050Z,-0.40
2023-02-15T06:18:53.645Z,-0.40
2023-02-15T06:21:21.879Z,-0.40
2023-02-15T06:23:49.782Z,-0.30
2023-02-15T06:26:17.878Z,0.00
2023-02-15T06:28:45.828Z,0.40
2023-02-15T06:31:14.039Z,0.90
2023-02-15T06:33:42.174Z,0.70
2023-02-15T06:36:10.245Z,1.10
2023-02-15T06:38:38.730Z,1.50
2023-02-15T06:41:07.508Z,1.90
2023-02-15T06:43:36.195Z,1.50
2023-02-15T06:46:04.529Z,2.00
2023-02-15T06:48:32.789Z,2.20
2023-02-15T06:51:01.382Z,1.70
2023-02-15T06:53:30.033Z,1.70
2023-02-15T06:56:10.231Z,2.40
2023-02-15T06:58:40.454Z,2.40
2023-02-15T07:01:10.247Z,2.90
2023-02-15T07:03:38.523Z,3.10
2023-02-15T07:06:09.458Z,3.10
2023-02-15T07:08:39.231Z,3.60
2023-02-15T07:11:26.742Z,3.60
2023-02-15T07:13:55.460Z,3.10
2023-02-15T07:16:23.647Z,4.10
2023-02-15T07:18:52.393Z,4.50
2023-02-15T07:21:20.421Z,4.60
2023-02-15T07:23:48.904Z,4.20
2023-02-15T07:26:17.336Z,4.20
2023-02-15T07:28:45.562Z,4.30
2023-02-15T07:31:13.530Z,4.30
2023-02-15T07:33:41.649Z,4.60
2023-02-15T07:36:13.303Z,5.30
2023-02-15T07:38:42.804Z,5.90
2023-02-15T07:41:13.627Z,6.50
2023-02-15T07:43:44.231Z,6.30
2023-02-15T07:46:16.308Z,6.40
2023-02-15T07:48:45.376Z,6.10
2023-02-15T07:51:14.094Z,5.90
2023-02-15T07:53:43.027Z,5.70
2023-02-15T07:56:13.386Z,6.10
2023-02-15T07:58:55.040Z,7.20
2023-02-15T08:01:32.378Z,7.30
2023-02-15T08:04:01.439Z,7.60
2023-02-15T08:06:33.265Z,8.00
2023-02-15T08:09:04.215Z,8.60
2023-02-15T08:11:34.515Z,8.70
2023-02-15T08:14:21.584Z,9.10
2023-02-15T08:16:52.137Z,7.80
2023-02-15T08:19:28.928Z,7.00
2023-02-15T08:21:59.344Z,7.30
2023-02-15T08:24:33.346Z,8.30
2023-02-15T08:27:06.006Z,8.70
2023-02-15T08:29:36.706Z,8.80
2023-02-15T08:32:08.255Z,9.60
2023-02-15T08:34:42.984Z,9.70
2023-02-15T08:37:11.033Z,9.90
2023-02-15T08:39:39.238Z,10.30
2023-02-15T08:42:07.743Z,9.80
2023-02-15T08:44:36.448Z,10.10
2023-02-15T08:47:05.194Z,11.10
2023-02-15T08:49:33.823Z,11.90
2023-02-15T08:52:01.892Z,11.10
2023-02-15T08:54:29.984Z,11.20
2023-02-15T08:56:58.338Z,11.60
2023-02-15T08:59:28.035Z,11.20
2023-02-15T09:01:56.567Z,11.00
2023-02-15T09:04:24.949Z,11.10
2023-02-15T09:06:53.348Z,11.60
2023-02-15T09:09:21.917Z,12.80
2023-02-15T09:11:57.873Z,13.00
2023-02-15T09:14:28.867Z,12.50
2023-02-15T09:16:56.951Z,12.30
2023-02-15T09:19:25.666Z,12.70
2023-02-15T09:21:54.417Z,13.00
2023-02-15T09:24:23.127Z,13.10
2023-02-15T09:26:51.037Z,13.30
2023-02-15T09:29:20.205Z,13.30
2023-02-15T09:31:51.959Z,14.20
2023-02-15T09:34:22.860Z,15.10
2023-02-15T09:36:52.150Z,15.20
2023-02-15T09:39:24.893Z,15.40
2023-02-15T09:41:55.940Z,14.80
2023-02-15T09:44:57.610Z,15.10
2023-02-15T09:47:29.180Z,14.80
2023-02-15T09:50:10.071Z,14.50
2023-02-15T09:52:51.132Z,14.90
2023-02-15T09:55:38.386Z,15.60
2023-02-15T09:58:31.918Z,15.50
2023-02-15T10:01:21.714Z,15.30
2023-02-15T10:04:13.006Z,15.10
2023-02-15T10:07:04.674Z,15.70
2023-02-15T10:09:58.758Z,16.30
2023-02-15T10:13:07.996Z,15.90
2023-02-15T10:15:46.401Z,16.00
2023-02-15T10:18:36.316Z,15.70
2023-02-15T10:21:45.657Z,16.10
2023-02-15T10:24:19.282Z,16.20
2023-02-15T10:26:49.363Z,16.20
2023-02-15T10:29:41.051Z,15.70
2023-02-15T10:32:24.533Z,15.40
2023-02-15T10:35:04.693Z,15.00
2023-02-15T10:37:50.549Z,14.90
2023-02-15T10:40:38.510Z,14.90
2023-02-15T10:43:28.488Z,14.70
2023-02-15T10:46:13.658Z,15.00
2023-02-15T10:48:54.090Z,14.90
2023-02-15T10:51:27.742Z,15.00
2023-02-15T10:54:09.898Z,14.80
2023-02-15T10:56:45.976Z,14.90
2023-02-15T10:59:26.180Z,15.10
2023-02-15T11:02:15.607Z,15.30
2023-02-15T11:04:50.474Z,15.20
2023-02-15T11:07:39.368Z,15.30
2023-02-15T11:10:38.900Z,15.20
2023-02-15T11:13:21.686Z,15.20
2023-02-15T11:16:14.908Z,15.20
2023-02-15T11:18:51.382Z,15.30
2023-02-15T11:21:28.889Z,15.40
2023-02-15T11:23:57.005Z,15.40
2023-02-15T11:26:35.164Z,15.60
2023-02-15T11:29:09.078Z,15.60
2023-02-15T11:31:52.542Z,15.70
2023-02-15T11:34:23.503Z,15.70
2023-02-15T11:36:54.065Z,15.70
2023-02-15T11:39:23.310Z,15.90
2023-02-15T11:41:58.292Z,15.90
2023-02-15T11:44:37.003Z,15.90
2023-02-15T11:47:11.640Z,15.80
2023-02-15T11:49:40.648Z,15.90
2023-02-15T11:52:13.335Z,15.90
2023-02-15T11:54:51.167Z,15.90
2023-02-15T11:57:28.243Z,15.90
2023-02-15T12:00:05.340Z,15.90
2023-02-15T12:02:38.730Z,16.00
2023-02-15T12:05:14.098Z,16.10
2023-02-15T12:07:51.725Z,16.30
2023-02-15T12:10:23.675Z,16.30
2023-02-15T12:13:15.163Z,16.20
2023-02-15T12:15:47.670Z,16.20
2023-02-15T12:18:35.094Z,16.30
2023-02-15T12:21:27.517Z,16.30
2023-02-15T12:23:59.445Z,16.20
2023-02-15T12:26:31.503Z,16.30
2023-02-15T12:29:14.468Z,16.30
2023-02-15T12:31:46.064Z,16.40
2023-02-15T12:34:28.371Z,16.40
2023-02-15T12:36:59.228Z,16.40
2023-02-15T12:39:34.193Z,16.30
2023-02-15T12:42:20.490Z,16.30
2023-02-15T12:45:03.847Z,16.40
2023-02-15T12:47:33.519Z,16.20
2023-02-15T12:50:18.249Z,16.20
2023-02-15T12:52:49.398Z,16.10
2023-02-15T12:55:26.613Z,16.10
2023-02-15T12:58:19.424Z,16.00
2023-02-15T13:00:48.808Z,16.00
2023-02-15T13:03:25.101Z,16.10
2023-02-15T13:05:56.840Z,16.10
2023-02-15T13:08:47.709Z,16.10
2023-02-15T13:11:31.360Z,16.20
2023-02-15T13:14:00.421Z,16.00
2023-02-15T13:16:38.011Z,16.10
2023-02-15T13:19:18.289Z,16.10
2023-02-15T13:21:49.143Z,16.00
2023-02-15T13:24:23.652Z,16.00
2023-02-15T13:27:01.061Z,16.10
2023-02-15T13:29:39.667Z,16.10
2023-02-15T13:32:30.723Z,16.10
2023-02-15T13:35:02.112Z,16.10
2023-02-15T13:37:52.875Z,16.10
2023-02-15T13:40:31.397Z,16.00
2023-02-15T13:43:24.151Z,16.10
2023-02-15T13:46:07.680Z,16.30
2023-02-15T13:48:54.036Z,16.30
2023-02-15T13:51:21.825Z,16.30
2023-02-15T13:54:04.681Z,16.40
2023-02-15T13:56:32.688Z,16.30
2023-02-15T13:59:36.789Z,16.30
2023-02-15T14:02:47.339Z,16.30
2023-02-15T14:05:43.241Z,16.20
2023-02-15T14:08:36.382Z,16.10
2023-02-15T14:11:23.951Z,16.10
2023-02-15T14:13:54.875Z,16.10
2023-02-15T14:16:40.492Z,16.00
2023-02-15T14:19:43.252Z,16.10
2023-02-15T14:22:38.536Z,16.00
2023-02-15T14:25:45.050Z,16.10
2023-02-15T14:28:16.320Z,16.10
2023-02-15T14:30:49.826Z,16.00
2023-02-15T14:33:41.076Z,16.00
2023-02-15T14:36:15.166Z,16.00
2023-02-15T14:39:30.332Z,16.00
2023-02-15T14:42:06.746Z,15.90
2023-02-15T14:45:05.281Z,15.90
2023-02-15T14:47:42.371Z,16.00
2023-02-15T14:50:44.062Z,16.10
2023-02-15T14:53:28.653Z,16.10
2023-02-15T14:56:18.728Z,16.00
2023-02-15T14:58:54.910Z,16.00
2023-02-15T15:01:42.147Z,15.90
2023-02-15T15:04:25.047Z,15.90
2023-02-15T15:07:22.796Z,15.90
2023-02-15T15:10:21.238Z,16.00
2023-02-15T15:12:51.378Z,16.00
2023-02-15T15:15:27.868Z,16.00
2023-02-15T15:18:28.122Z,16.00
2023-02-15T15:20:56.929Z,15.80
2023-02-15T15:23:41.805Z,15.80
2023-02-15T15:26:23.740Z,15.90
2023-02-15T15:28:51.670Z,15.80
2023-02-15T15:31:38.731Z,15.70
2023-02-15T15:34:22.734Z,15.70
2023-02-15T15:37:34.445Z,15.60
2023-02-15T15:40:23.455Z,15.50
2023-02-15T15:43:09.568Z,15.40
2023-02-15T15:45:58.440Z,15.50
2023-02-15T15:48:30.692Z,15.40
2023-02-15T15:51:02.449Z,15.30
2023-02-15T15:53:35.498Z,15.30
2023-02-15T15:56:09.463Z,15.10
2023-02-15T15:58:43.608Z,15.00
2023-02-15T16:01:15.865Z,14.90
2023-02-15T16:03:52.436Z,14.90
2023-02-15T16:06:30.728Z,14.80
2023-02-15T16:08:59.435Z,14.80
2023-02-15T16:11:31.336Z,14.70
2023-02-15T16:13:59.781Z,14.60
2023-02-15T16:16:30.605Z,14.50
2023-02-15T16:19:00.770Z,14.50
2023-02-15T16:21:33.124Z,14.40
2023-02-15T16:24:21.332Z,14.20
2023-02-15T16:27:18.617Z,14.00
2023-02-15T16:29:47.256Z,13.90
2023-02-15T16:32:25.720Z,13.70
2023-02-15T16:35:03.325Z,13.60
2023-02-15T16:37:36.406Z,13.40
2023-02-15T16:40:07.080Z,13.30
2023-02-15T16:42:36.597Z,13.20
2023-02-15T16:45:17.598Z,13.10
2023-02-15T16:47:51.362Z,13.00
2023-02-15T16:50:24.475Z,12.80
2023-02-15T16:52:53.839Z,12.60
2023-02-15T16:55:33.298Z,12.50
2023-02-15T16:58:05.605Z,12.30
2023-02-15T17:00:38.339Z,12.20
2023-02-15T17:03:23.559Z,12.10
2023-02-15T17:05:55.456Z,11.80
2023-02-15T17:08:34.479Z,11.60
2023-02-15T17:11:16.563Z,11.40
2023-02-15T17:14:06.702Z,11.10
2023-02-15T17:16:37.175Z,10.90
2023-02-15T17:19:30.665Z,10.70
2023-02-15T17:22:01.817Z,10.50
2023-02-15T17:24:44.718Z,10.20
2023-02-15T17:27:18.474Z,10.20
2023-02-15T17:29:53.854Z,10.20
2023-02-15T17:32:25.742Z,10.30
2023-02-15T17:35:22.786Z,10.30
2023-02-15T17:37:51.952Z,10.30
2023-02-15T17:40:32.343Z,10.20
2023-02-15T17:43:00.569Z,10.10
2023-02-15T17:45:44.230Z,10.00
2023-02-15T17:48:17.058Z,9.90
2023-02-15T17:50:45.526Z,9.90
2023-02-15T17:53:16.016Z,9.90
2023-02-15T17:55:44.378Z,9.90
2023-02-15T17:58:15.531Z,9.60
2023-02-15T18:01:05.517Z,9.40
2023-02-15T18:04:07.576Z,9.40
2023-02-15T18:06:56.444Z,9.30
2023-02-15T18:09:43.850Z,9.30
2023-02-15T18:12:23.221Z,9.20
2023-02-15T18:14:52.149Z,9.00
2023-02-15T18:17:22.759Z,8.90
2023-02-15T18:19:50.850Z,8.90
2023-02-15T18:22:20.426Z,8.90
2023-02-15T18:24:49.763Z,9.00
2023-02-15T18:27:18.102Z,9.10
2023-02-15T18:29:46.547Z,9.10
2023-02-15T18:32:36.490Z,8.80
2023-02-15T18:35:31.619Z,8.50
2023-02-15T18:38:01.561Z,8.40
2023-02-15T18:40:30.243Z,8.30
2023-02-15T18:42:58.200Z,8.30
2023-02-15T18:45:33.513Z,8.30
2023-02-15T18:48:01.909Z,8.20
2023-02-15T18:50:38.215Z,8.30
2023-02-15T18:53:11.747Z,8.20
2023-02-15T18:55:39.643Z,8.20
2023-02-15T18:58:14.526Z,8.00
2023-02-15T19:00:43.976Z,8.10
2023-02-15T19:03:18.320Z,7.90
2023-02-15T19:05:47.700Z,7.70
2023-02-15T19:08:24.604Z,7.70
2023-02-15T19:10:53.306Z,7.70
2023-02-15T19:13:21.701Z,7.60
2023-02-15T19:15:49.726Z,7.60
2023-02-15T19:18:19.270Z,7.70
2023-02-15T19:20:48.624Z,7.60
2023-02-15T19:23:23.157Z,7.60
2023-02-15T19:25:54.191Z,7.50
2023-02-15T19:28:30.435Z,7.50
2023-02-15T19:30:59.137Z,7.50
2023-02-15T19:33:27.511Z,7.40
2023-02-15T19:35:57.804Z,7.30
2023-02-15T19:38:32.665Z,7.20
2023-02-15T19:41:08.006Z,7.20
2023-02-15T19:43:36.332Z,7.10
2023-02-15T19:46:05.214Z,7.20
2023-02-15T19:48:33.306Z,7.20
2023-02-15T19:51:01.251Z,7.40
2023-02-15T19:53:30.266Z,7.40
2023-02-15T19:55:58.513Z,7.40
2023-02-15T19:58:26.672Z,7.50
2023-02-15T20:00:54.888Z,7.50
2023-02-15T20:03:23.662Z,7.30
2023-02-15T20:05:52.529Z,7.10
2023-02-15T20:08:23.083Z,7.00
2023-02-15T20:10:52.581Z,7.00
2023-02-15T20:13:22.744Z,6.80
2023-02-15T20:15:52.144Z,6.80
2023-02-15T20:18:22.594Z,6.60
2023-02-15T20:20:53.482Z,6.50
2023-02-15T20:23:30.444Z,6.40
2023-02-15T20:26:01.710Z,6.50
2023-02-15T20:28:32.188Z,6.60
2023-02-15T20:31:00.717Z,7.00
2023-02-15T20:33:29.593Z,7.30
2023-02-15T20:35:59.696Z,7.30
2023-02-15T20:38:30.924Z,7.40
2023-02-15T20:41:18.924Z,7.40
2023-02-15T20:43:46.978Z,7.30
2023-02-15T20:46:15.187Z,7.20
2023-02-15T20:48:43.390Z,7.10
2023-02-15T20:51:18.088Z,7.00
2023-02-15T20:53:46.615Z,6.70
2023-02-15T20:56:23.137Z,6.40
2023-02-15T20:58:53.473Z,6.40
2023-02-15T21:01:21.622Z,6.40
2023-02-15T21:03:49.966Z,6.20
2023-02-15T21:06:18.613Z,6.10
2023-02-15T21:08:46.662Z,6.10
2023-02-15T21:11:21.256Z,6.10
2023-02-15T21:13:51.336Z,6.00
2023-02-15T21:16:20.154Z,6.00
2023-02-15T21:18:48.249Z,6.00
2023-02-15T21:21:23.892Z,6.00
2023-02-15T21:23:53.371Z,5.90
2023-02-15T21:26:22.882Z,5.50
2023-02-15T21:28:51.702Z,5.40
2023-02-15T21:31:25.410Z,5.20
2023-02-15T21:33:53.693Z,5.10
2023-02-15T21:36:25.452Z,5.10
2023-02-15T21:38:56.297Z,5.10
2023-02-15T21:41:56.911Z,5.10
2023-02-15T21:44:43.748Z,5.00
2023-02-15T21:47:37.996Z,5.00
2023-02-15T21:50:28.657Z,5.10
2023-02-15T21:52:57.640Z,5.30
2023-02-15T21:55:26.703Z,5.20
2023-02-15T21:57:56.087Z,5.20
2023-02-15T22:00:26.755Z,5.20
2023-02-15T22:02:58.300Z,5.10
2023-02-15T22:05:30.677Z,5.00
2023-02-15T22:07:58.845Z,4.90
2023-02-15T22:10:31.875Z,4.90
2023-02-15T22:13:03.830Z,4.90
2023-02-15T22:15:37.848Z,4.80
2023-02-15T22:18:07.196Z,4.70
2023-02-15T22:20:35.608Z,4.70
2023-02-15T22:23:03.653Z,4.80
2023-02-15T22:25:31.925Z,5.00
2023-02-15T22:27:59.851Z,5.00
2023-02-15T22:30:33.922Z,4.90
2023-02-15T22:33:01.995Z,4.70
2023-02-15T22:35:32.727Z,4.60
2023-02-15T22:38:01.404Z,4.80
2023-02-15T22:40:32.830Z,4.80
2023-02-15T22:43:03.689Z,4.90
2023-02-15T22:45:35.825Z,4.90
2023-02-15T22:48:04.883Z,5.00
2023-02-15T22:50:44.033Z,4.90
2023-02-15T22:53:15.464Z,5.00
2023-02-15T22:55:44.304Z,5.20
2023-02-15T22:58:23.785Z,5.20
2023-02-15T23:00:51.867Z,5.00
2023-02-15T23:03:26.440Z,4.90
2023-02-15T23:05:54.536Z,4.80
2023-02-15T23:08:22.471Z,4.60
2023-02-15T23:10:55.243Z,4.60
2023-02-15T23:13:27.685Z,4.40
2023-02-15T23:15:58.965Z,4.40
2023-02-15T23:18:32.406Z,4.40
2023-02-15T23:21:04.494Z,4.40
2023-02-15T23:23:34.766Z,4.40
2023-02-15T23:26:04.933Z,4.40
2023-02-15T23:28:38.778Z,4.50
2023-02-15T23:31:28.292Z,4.80
2023-02-15T23:33:57.660Z,4.90
2023-02-15T23:36:26.524Z,4.80
2023-02-15T23:38:57.112Z,4.90
2023-02-15T23:41:28.729Z,4.80
2023-02-15T23:43:57.735Z,4.60
2023-02-15T23:46:30.595Z,4.60
2023-02-15T23:48:59.409Z,4.40
2023-02-15T23:51:31.900Z,4.10
2023-02-15T23:54:00.315Z,4.00
2023-02-15T23:56:28.528Z,4.00
2023-02-15T23:58:56.856Z,4.00
